createdAt,value
2018-06-14T00:00:02.750Z,13.90
2018-06-14T00:02:31.093Z,13.90
2018-06-14T00:04:59.401Z,13.80
2018-06-14T00:07:27.797Z,13.80
2018-06-14T00:09:56.133Z,13.80
2018-06-14T00:12:24.443Z,13.80
2018-06-14T00:14:52.772Z,13.80
2018-06-14T00:17:21.127Z,13.70
2018-06-14T00:19:49.497Z,13.70
2018-06-14T00:22:18.041Z,13.70
2018-06-14T00:24:46.381Z,13.70
2018-06-14T00:27:14.787Z,13.70
2018-06-14T00:29:43.375Z,13.70
2018-06-14T00:32:11.868Z,13.70
2018-06-14T00:34:40.280Z,13.60
2018-06-14T00:37:08.646Z,13.60
2018-06-14T00:39:37.113Z,13.60
2018-06-14T00:42:05.423Z,13.60
2018-06-14T00:44:34.129Z,13.60
2018-06-14T00:47:02.498Z,13.60
2018-06-14T00:49:30.795Z,13.60
2018-06-14T00:51:59.281Z,13.50
2018-06-14T00:54:28.002Z,13.40
2018-06-14T00:57:07.516Z,13.50
2018-06-14T00:59:35.891Z,13.50
2018-06-14T01:02:04.379Z,13.40
2018-06-14T01:04:32.741Z,13.40
2018-06-14T01:07:01.122Z,13.40
2018-06-14T01:09:29.497Z,13.40
2018-06-14T01:11:57.957Z,13.40
2018-06-14T01:14:26.309Z,13.30
2018-06-14T01:16:54.597Z,13.40
2018-06-14T01:19:22.935Z,13.40
2018-06-14T01:21:51.230Z,13.40
2018-06-14T01:24:19.536Z,13.20
2018-06-14T01:26:47.850Z,13.20
2018-06-14T01:29:16.389Z,13.40
2018-06-14T01:31:45.346Z,13.30
2018-06-14T01:34:13.840Z,13.30
2018-06-14T01:36:42.235Z,13.30
2018-06-14T01:39:10.741Z,13.20
2018-06-14T01:41:39.178Z,13.20
2018-06-14T01:44:07.497Z,13.20
2018-06-14T01:46:35.866Z,13.20
2018-06-14T01:49:04.346Z,13.10
2018-06-14T01:51:32.745Z,13.20
2018-06-14T01:56:30.021Z,13.10
2018-06-14T01:58:58.425Z,13.10
2018-06-14T02:01:26.753Z,13.10
2018-06-14T02:03:55.150Z,13.10
2018-06-14T02:06:24.192Z,13.10
2018-06-14T02:08:52.477Z,13.00
2018-06-14T02:11:20.778Z,13.00
2018-06-14T02:13:49.093Z,13.00
2018-06-14T02:16:17.518Z,13.10
2018-06-14T02:18:46.512Z,13.00
2018-06-14T02:21:14.830Z,12.90
2018-06-14T02:23:43.207Z,12.90
2018-06-14T02:26:11.535Z,12.90
2018-06-14T02:28:39.995Z,12.90
2018-06-14T02:31:08.342Z,12.90
2018-06-14T02:33:36.696Z,12.90
2018-06-14T02:36:05.146Z,12.90
2018-06-14T02:38:33.496Z,12.90
2018-06-14T02:43:29.881Z,12.90
2018-06-14T02:45:58.189Z,12.90
2018-06-14T02:48:26.585Z,12.80
2018-06-14T02:50:54.930Z,12.80
2018-06-14T02:53:23.237Z,12.80
2018-06-14T02:55:51.652Z,12.90
2018-06-14T02:58:19.971Z,12.80
2018-06-14T03:00:48.329Z,12.90
2018-06-14T03:03:16.889Z,12.90
2018-06-14T03:05:45.445Z,12.90
2018-06-14T03:08:13.794Z,12.80
2018-06-14T03:10:42.257Z,12.80
2018-06-14T03:13:10.556Z,12.90
2018-06-14T03:15:38.873Z,12.80
2018-06-14T03:18:07.287Z,12.80
2018-06-14T03:20:35.697Z,12.80
2018-06-14T03:23:04.016Z,12.80
2018-06-14T03:28:01.241Z,12.80
2018-06-14T03:30:29.558Z,12.80
2018-06-14T03:32:58.044Z,12.80
2018-06-14T03:35:26.393Z,12.80
2018-06-14T03:37:55.093Z,12.80
2018-06-14T03:40:23.499Z,12.70
2018-06-14T03:42:51.922Z,12.80
2018-06-14T03:45:21.573Z,12.80
2018-06-14T03:50:19.158Z,12.80
2018-06-14T03:52:47.610Z,12.80
2018-06-14T03:55:16.026Z,12.80
2018-06-14T03:57:44.325Z,12.80
2018-06-14T04:00:12.642Z,12.80
2018-06-14T04:02:41.035Z,12.80
2018-06-14T04:05:10.169Z,12.80
2018-06-14T04:07:38.635Z,12.80
2018-06-14T04:10:07.713Z,12.90
2018-06-14T04:12:36.124Z,12.90
2018-06-14T04:15:04.538Z,12.90
2018-06-14T04:17:32.861Z,12.90
2018-06-14T04:20:01.209Z,12.90
2018-06-14T04:22:29.541Z,13.00
2018-06-14T04:24:57.990Z,13.00
2018-06-14T04:27:26.364Z,13.00
2018-06-14T04:29:54.745Z,13.10
2018-06-14T04:32:23.262Z,13.10
2018-06-14T04:34:51.706Z,13.20
2018-06-14T04:37:20.034Z,13.30
2018-06-14T04:39:48.629Z,13.40
2018-06-14T04:42:16.995Z,13.40
2018-06-14T04:44:45.392Z,13.40
2018-06-14T04:47:13.709Z,13.40
2018-06-14T04:49:42.124Z,13.50
2018-06-14T04:52:10.449Z,13.50
2018-06-14T04:54:38.949Z,13.50
2018-06-14T04:57:07.332Z,13.50
2018-06-14T04:59:35.622Z,13.60
2018-06-14T05:02:03.933Z,13.70
2018-06-14T05:04:32.209Z,13.70
2018-06-14T05:07:01.038Z,13.80
2018-06-14T05:09:29.432Z,13.90
2018-06-14T05:11:57.799Z,13.90
2018-06-14T05:14:26.118Z,14.00
2018-06-14T05:16:54.660Z,14.00
2018-06-14T05:19:22.992Z,14.00
2018-06-14T05:21:51.825Z,14.00
2018-06-14T05:24:20.155Z,14.10
2018-06-14T05:26:48.510Z,14.10
2018-06-14T05:29:16.985Z,14.20
2018-06-14T05:31:45.321Z,14.30
2018-06-14T05:34:13.629Z,14.40
2018-06-14T05:36:41.951Z,14.40
2018-06-14T05:39:11.899Z,14.40
2018-06-14T05:41:40.830Z,14.40
2018-06-14T05:44:09.162Z,14.40
2018-06-14T05:46:37.617Z,14.50
2018-06-14T05:49:06.330Z,14.50
2018-06-14T05:51:34.643Z,14.50
2018-06-14T05:54:03.162Z,14.60
2018-06-14T05:56:31.486Z,14.70
2018-06-14T05:59:01.251Z,15.00
2018-06-14T06:01:34.804Z,15.50
2018-06-14T06:04:03.117Z,15.70
2018-06-14T06:06:31.455Z,15.80
2018-06-14T06:08:59.813Z,15.80
2018-06-14T06:11:28.966Z,15.90
2018-06-14T06:13:58.503Z,16.00
2018-06-14T06:16:26.952Z,16.30
2018-06-14T06:23:51.369Z,16.70
2018-06-14T06:28:47.821Z,16.90
2018-06-14T06:31:16.458Z,16.90
2018-06-14T06:33:44.754Z,17.10
2018-06-14T06:36:13.095Z,17.20
2018-06-14T06:38:41.923Z,17.50
2018-06-14T06:41:10.218Z,17.70
2018-06-14T06:43:38.929Z,17.80
2018-06-14T06:46:08.088Z,17.80
2018-06-14T06:48:36.438Z,17.60
2018-06-14T06:51:04.722Z,17.60
2018-06-14T06:53:33.401Z,17.70
2018-06-14T06:56:01.685Z,17.90
2018-06-14T06:58:30.957Z,18.20
2018-06-14T07:00:59.250Z,18.20
2018-06-14T07:03:27.588Z,18.30
2018-06-14T07:05:55.948Z,18.40
2018-06-14T07:08:24.426Z,18.50
2018-06-14T07:10:52.742Z,18.80
2018-06-14T07:13:21.062Z,18.60
2018-06-14T07:15:49.456Z,18.70
2018-06-14T07:18:17.757Z,18.80
2018-06-14T07:20:46.017Z,18.70
2018-06-14T07:23:14.679Z,18.80
2018-06-14T07:25:42.953Z,18.90
2018-06-14T07:28:11.249Z,18.60
2018-06-14T07:30:39.536Z,18.90
2018-06-14T07:33:07.813Z,19.10
2018-06-14T07:35:36.117Z,19.20
2018-06-14T07:40:32.621Z,19.10
2018-06-14T07:43:01.025Z,19.40
2018-06-14T07:45:30.018Z,19.40
2018-06-14T07:47:58.324Z,19.80
2018-06-14T07:50:26.701Z,20.10
2018-06-14T07:52:55.122Z,20.30
2018-06-14T07:55:23.433Z,19.90
2018-06-14T07:57:51.763Z,20.20
2018-06-14T08:00:20.094Z,20.40
2018-06-14T08:02:48.384Z,20.10
2018-06-14T08:05:16.727Z,20.10
2018-06-14T08:07:45.042Z,20.30
2018-06-14T08:10:13.354Z,20.30
2018-06-14T08:12:41.750Z,19.90
2018-06-14T08:15:10.133Z,19.80
2018-06-14T08:17:38.469Z,20.00
2018-06-14T08:20:06.958Z,19.80
2018-06-14T08:22:35.277Z,19.90
2018-06-14T08:25:03.557Z,20.10
2018-06-14T08:27:31.802Z,19.80
2018-06-14T08:30:00.149Z,20.00
2018-06-14T08:32:28.488Z,20.10
2018-06-14T08:34:56.817Z,20.20
2018-06-14T08:37:30.423Z,20.30
2018-06-14T08:39:58.921Z,20.30
2018-06-14T08:42:27.257Z,20.40
2018-06-14T08:44:56.808Z,20.30
2018-06-14T08:47:25.193Z,20.40
2018-06-14T08:49:53.526Z,20.30
2018-06-14T08:52:21.890Z,20.30
2018-06-14T08:54:50.213Z,20.30
2018-06-14T08:57:18.569Z,20.30
2018-06-14T09:02:16.169Z,20.60
2018-06-14T09:04:44.541Z,20.70
2018-06-14T09:07:12.946Z,20.60
2018-06-14T09:09:41.293Z,20.80
2018-06-14T09:12:09.609Z,20.60
2018-06-14T09:14:38.415Z,20.80
2018-06-14T09:17:06.797Z,20.70
2018-06-14T09:19:35.181Z,20.80
2018-06-14T09:22:03.521Z,20.90
2018-06-14T09:24:31.961Z,20.80
2018-06-14T09:27:00.417Z,20.90
2018-06-14T09:29:28.729Z,21.20
2018-06-14T09:34:25.160Z,21.20
2018-06-14T09:36:53.439Z,21.00
2018-06-14T09:39:21.760Z,21.10
2018-06-14T09:41:50.033Z,21.10
2018-06-14T09:44:19.344Z,21.20
2018-06-14T09:46:47.594Z,21.20
2018-06-14T09:49:17.081Z,21.30
2018-06-14T09:54:15.449Z,21.20
2018-06-14T09:56:44.137Z,21.00
2018-06-14T09:59:12.481Z,20.70
2018-06-14T10:01:40.818Z,20.80
2018-06-14T10:04:09.121Z,21.00
2018-06-14T10:06:37.476Z,21.10
2018-06-14T10:09:07.940Z,21.30
2018-06-14T10:11:37.539Z,21.40
2018-06-14T10:14:05.857Z,21.40
2018-06-14T10:16:35.106Z,21.50
2018-06-14T10:19:03.765Z,21.30
2018-06-14T10:21:32.112Z,21.60
2018-06-14T10:24:00.393Z,21.30
2018-06-14T10:26:28.742Z,21.50
2018-06-14T10:28:57.069Z,21.50
2018-06-14T10:31:25.360Z,21.60
2018-06-14T10:33:53.717Z,21.70
2018-06-14T10:36:22.057Z,21.80
2018-06-14T10:38:50.361Z,21.80
2018-06-14T10:41:18.640Z,21.80
2018-06-14T10:43:47.054Z,21.80
2018-06-14T10:46:15.376Z,21.80
2018-06-14T10:48:43.889Z,21.60
2018-06-14T10:51:12.250Z,21.60
2018-06-14T10:53:40.575Z,21.70
2018-06-14T10:56:08.913Z,21.70
2018-06-14T10:58:37.351Z,21.60
2018-06-14T11:01:05.651Z,21.40
2018-06-14T11:03:35.127Z,21.50
2018-06-14T11:06:03.518Z,21.50
2018-06-14T11:08:31.802Z,21.50
2018-06-14T11:11:00.105Z,21.50
2018-06-14T11:13:28.410Z,21.60
2018-06-14T11:15:56.718Z,21.40
2018-06-14T11:18:25.099Z,21.30
2018-06-14T11:20:54.359Z,21.10
2018-06-14T11:23:22.697Z,21.00
2018-06-14T11:25:51.034Z,21.00
2018-06-14T11:28:19.460Z,20.90
2018-06-14T11:30:47.773Z,20.60
2018-06-14T11:33:16.116Z,20.40
2018-06-14T11:35:44.646Z,20.30
2018-06-14T11:38:12.955Z,20.10
2018-06-14T11:40:41.297Z,20.10
2018-06-14T11:43:09.621Z,20.00
2018-06-14T11:45:37.953Z,19.90
2018-06-14T11:48:06.261Z,19.90
2018-06-14T11:50:34.749Z,19.80
2018-06-14T11:53:03.133Z,19.80
2018-06-14T11:55:31.527Z,19.80
2018-06-14T11:57:59.901Z,19.80
2018-06-14T12:00:28.210Z,19.80
2018-06-14T12:02:56.558Z,19.70
2018-06-14T12:07:52.942Z,19.80
2018-06-14T12:10:21.315Z,19.70
2018-06-14T12:12:49.654Z,19.70
2018-06-14T12:15:18.061Z,19.70
2018-06-14T12:17:46.387Z,19.50
2018-06-14T12:20:15.433Z,19.40
2018-06-14T12:22:43.850Z,19.40
2018-06-14T12:25:12.197Z,19.20
2018-06-14T12:27:40.501Z,19.10
2018-06-14T12:30:08.805Z,19.10
2018-06-14T12:32:37.129Z,19.10
2018-06-14T12:35:05.477Z,19.10
2018-06-14T12:37:33.795Z,19.20
2018-06-14T12:40:02.132Z,19.20
2018-06-14T12:42:30.617Z,19.30
2018-06-14T12:47:27.091Z,19.10
2018-06-14T12:49:55.573Z,19.10
2018-06-14T12:52:23.997Z,19.20
2018-06-14T12:54:52.266Z,19.30
2018-06-14T12:57:20.666Z,19.30
2018-06-14T13:02:17.011Z,19.40
2018-06-14T13:04:45.461Z,19.40
2018-06-14T13:07:13.871Z,19.40
2018-06-14T13:09:42.294Z,19.40
2018-06-14T13:12:10.678Z,19.30
2018-06-14T13:14:39.139Z,19.40
2018-06-14T13:17:07.487Z,19.50
2018-06-14T13:19:36.169Z,19.60
2018-06-14T13:22:05.378Z,19.70
2018-06-14T13:24:41.597Z,19.80
2018-06-14T13:27:11.821Z,19.90
2018-06-14T13:29:40.578Z,20.00
2018-06-14T13:32:09.084Z,20.10
2018-06-14T13:34:37.996Z,20.40
2018-06-14T13:37:06.325Z,20.40
2018-06-14T13:39:34.717Z,20.30
2018-06-14T13:42:03.433Z,20.30
2018-06-14T13:44:31.749Z,20.10
2018-06-14T13:47:00.240Z,20.30
2018-06-14T13:49:29.075Z,20.20
2018-06-14T13:51:57.417Z,20.20
2018-06-14T13:54:25.810Z,20.10
2018-06-14T13:56:54.221Z,20.20
2018-06-14T13:59:22.499Z,20.40
2018-06-14T14:01:50.824Z,20.60
2018-06-14T14:04:19.182Z,20.50
2018-06-14T14:06:47.511Z,20.40
2018-06-14T14:09:16.013Z,20.40
2018-06-14T14:11:44.378Z,20.60
2018-06-14T14:14:12.725Z,20.70
2018-06-14T14:16:41.201Z,20.80
2018-06-14T14:19:09.990Z,20.80
2018-06-14T14:24:06.954Z,21.00
2018-06-14T14:26:35.332Z,21.00
2018-06-14T14:29:03.626Z,20.90
2018-06-14T14:31:32.042Z,20.90
2018-06-14T14:34:00.334Z,20.80
2018-06-14T14:36:28.694Z,20.60
2018-06-14T14:38:57.336Z,20.60
2018-06-14T14:41:25.689Z,20.50
2018-06-14T14:43:54.169Z,20.50
2018-06-14T14:46:22.597Z,20.40
2018-06-14T14:48:51.014Z,20.30
2018-06-14T14:51:19.293Z,20.20
2018-06-14T14:53:47.738Z,20.20
2018-06-14T14:56:16.073Z,20.10
2018-06-14T14:58:44.361Z,20.00
2018-06-14T15:01:12.827Z,20.00
2018-06-14T15:03:41.161Z,20.10
2018-06-14T15:06:09.493Z,20.10
2018-06-14T15:08:37.895Z,19.90
2018-06-14T15:18:30.435Z,19.70
2018-06-14T15:20:58.826Z,19.60
2018-06-14T15:23:28.237Z,19.30
2018-06-14T15:25:57.241Z,19.30
2018-06-14T15:28:25.911Z,19.10
2018-06-14T15:30:54.354Z,18.80
2018-06-14T15:33:22.657Z,18.80
2018-06-14T15:35:50.990Z,18.60
2018-06-14T15:38:19.522Z,18.50
2018-06-14T15:40:47.885Z,18.60
2018-06-14T15:43:16.255Z,18.60
2018-06-14T15:45:44.640Z,18.70
2018-06-14T15:48:12.982Z,18.70
2018-06-14T15:50:41.357Z,18.70
2018-06-14T15:53:09.674Z,18.50
2018-06-14T15:56:02.575Z,18.30
2018-06-14T15:58:31.863Z,18.20
2018-06-14T16:01:00.291Z,18.20
2018-06-14T16:03:28.597Z,18.30
2018-06-14T16:05:56.961Z,18.20
2018-06-14T16:08:25.257Z,18.20
2018-06-14T16:10:54.119Z,18.10
2018-06-14T16:18:19.300Z,18.00
2018-06-14T16:20:48.693Z,18.00
2018-06-14T16:23:17.089Z,18.00
2018-06-14T16:25:45.530Z,17.90
2018-06-14T16:28:14.112Z,18.00
2018-06-14T16:30:42.580Z,17.70
2018-06-14T16:33:10.985Z,17.70
2018-06-14T16:35:39.357Z,17.60
2018-06-14T16:38:07.681Z,17.40
2018-06-14T16:40:35.991Z,17.60
2018-06-14T16:43:04.305Z,17.50
2018-06-14T16:45:32.681Z,17.60
2018-06-14T16:48:01.193Z,17.70
2018-06-14T16:50:30.627Z,17.60
2018-06-14T16:52:58.937Z,17.70
2018-06-14T16:55:27.289Z,17.70
2018-06-14T16:57:55.773Z,17.80
2018-06-14T17:00:24.381Z,17.70
2018-06-14T17:02:52.721Z,17.80
2018-06-14T17:05:21.207Z,17.80
2018-06-14T17:10:17.734Z,17.60
2018-06-14T17:12:46.093Z,17.60
2018-06-14T17:15:14.422Z,17.60
2018-06-14T17:17:43.715Z,17.50
2018-06-14T17:20:12.870Z,17.50
2018-06-14T17:22:41.303Z,17.50
2018-06-14T17:25:10.418Z,17.40
2018-06-14T17:27:38.759Z,17.30
2018-06-14T17:30:07.994Z,17.40
2018-06-14T17:32:36.767Z,17.10
2018-06-14T17:35:05.301Z,17.20
2018-06-14T17:37:33.821Z,17.30
2018-06-14T17:42:30.234Z,17.30
2018-06-14T17:44:58.699Z,17.30
2018-06-14T17:47:27.098Z,17.40
2018-06-14T17:49:55.502Z,17.30
2018-06-14T17:52:23.821Z,17.30
2018-06-14T17:54:52.142Z,17.10
2018-06-14T17:57:21.482Z,17.00
2018-06-14T17:59:49.976Z,17.30
2018-06-14T18:02:18.329Z,17.20
2018-06-14T18:04:46.709Z,17.30
2018-06-14T18:07:15.601Z,17.20
2018-06-14T18:09:43.925Z,17.10
2018-06-14T18:12:12.278Z,17.20
2018-06-14T18:14:41.275Z,17.20
2018-06-14T18:17:09.660Z,17.20
2018-06-14T18:19:38.191Z,17.20
2018-06-14T18:22:06.541Z,17.20
2018-06-14T18:24:34.861Z,17.20
2018-06-14T18:27:03.334Z,17.20
2018-06-14T18:29:31.664Z,17.20
2018-06-14T18:32:00.421Z,17.20
2018-06-14T18:34:28.874Z,17.20
2018-06-14T18:36:57.257Z,17.10
2018-06-14T18:39:25.581Z,17.00
2018-06-14T18:41:53.918Z,17.10
2018-06-14T18:44:22.305Z,17.20
2018-06-14T18:46:51.157Z,17.20
2018-06-14T18:49:20.265Z,17.10
2018-06-14T18:51:48.561Z,17.10
2018-06-14T18:54:16.877Z,17.20
2018-06-14T18:56:45.234Z,17.30
2018-06-14T18:59:13.685Z,17.20
2018-06-14T19:01:42.033Z,17.10
2018-06-14T19:04:10.381Z,17.10
2018-06-14T19:06:38.829Z,17.10
2018-06-14T19:09:08.563Z,17.00
2018-06-14T19:11:37.074Z,17.00
2018-06-14T19:14:05.454Z,17.10
2018-06-14T19:16:33.757Z,17.10
2018-06-14T19:19:02.070Z,17.10
2018-06-14T19:21:30.352Z,17.10
2018-06-14T19:24:01.032Z,17.10
2018-06-14T19:26:29.383Z,17.00
2018-06-14T19:28:57.629Z,17.00
2018-06-14T19:31:25.897Z,17.00
2018-06-14T19:33:54.489Z,17.10
2018-06-14T19:36:22.829Z,17.10
2018-06-14T19:38:51.154Z,17.00
2018-06-14T19:41:19.489Z,16.90
2018-06-14T19:43:47.983Z,17.00
2018-06-14T19:46:16.282Z,17.00
2018-06-14T19:48:44.621Z,17.00
2018-06-14T19:51:13.038Z,17.00
2018-06-14T19:53:41.766Z,16.90
2018-06-14T19:56:10.278Z,17.00
2018-06-14T19:58:38.582Z,17.00
2018-06-14T20:01:06.982Z,17.00
2018-06-14T20:03:35.497Z,16.90
2018-06-14T20:06:03.830Z,16.80
2018-06-14T20:08:32.185Z,16.90
2018-06-14T20:11:00.517Z,16.90
2018-06-14T20:13:28.888Z,16.80
2018-06-14T20:15:57.191Z,16.90
2018-06-14T20:18:25.677Z,16.80
2018-06-14T20:20:54.052Z,16.70
2018-06-14T20:23:22.341Z,16.70
2018-06-14T20:25:50.677Z,16.70
2018-06-14T20:28:19.069Z,16.80
2018-06-14T20:30:47.421Z,16.80
2018-06-14T20:35:44.570Z,16.70
2018-06-14T20:38:12.913Z,16.60
2018-06-14T20:40:41.589Z,16.60
2018-06-14T20:43:09.893Z,16.60
2018-06-14T20:45:38.181Z,16.60
2018-06-14T20:48:06.609Z,16.60
2018-06-14T20:50:34.909Z,16.60
2018-06-14T20:53:03.214Z,16.70
2018-06-14T20:55:31.667Z,16.60
2018-06-14T20:57:59.977Z,16.50
2018-06-14T21:00:30.010Z,16.50
2018-06-14T21:02:58.489Z,16.50
2018-06-14T21:05:26.821Z,16.50
2018-06-14T21:07:55.213Z,16.40
2018-06-14T21:10:24.438Z,16.40
2018-06-14T21:12:52.798Z,16.40
2018-06-14T21:15:21.094Z,16.40
2018-06-14T21:17:49.434Z,16.50
2018-06-14T21:20:17.733Z,16.40
2018-06-14T21:22:46.113Z,16.50
2018-06-14T21:25:14.578Z,16.50
2018-06-14T21:27:42.933Z,16.50
2018-06-14T21:30:11.237Z,16.50
2018-06-14T21:32:39.581Z,16.40
2018-06-14T21:35:07.946Z,16.40
2018-06-14T21:37:36.289Z,16.40
2018-06-14T21:40:04.777Z,16.30
2018-06-14T21:42:33.249Z,16.40
2018-06-14T21:45:01.558Z,16.40
2018-06-14T21:47:29.989Z,16.50
2018-06-14T21:49:58.316Z,16.40
2018-06-14T21:52:26.621Z,16.50
2018-06-14T21:54:54.977Z,16.50
2018-06-14T21:57:23.313Z,16.50
2018-06-14T21:59:51.628Z,16.50
2018-06-14T22:02:20.198Z,16.50
2018-06-14T22:04:48.611Z,16.40
2018-06-14T22:14:41.989Z,16.50
2018-06-14T22:17:11.189Z,16.50
2018-06-14T22:19:39.737Z,16.50
2018-06-14T22:22:08.088Z,16.40
2018-06-14T22:24:36.776Z,16.40
2018-06-14T22:27:05.162Z,16.40
2018-06-14T22:29:33.465Z,16.50
2018-06-14T22:32:01.769Z,16.60
2018-06-14T22:34:41.301Z,16.50
2018-06-14T22:37:09.579Z,16.50
2018-06-14T22:39:38.347Z,16.50
2018-06-14T22:42:06.757Z,16.50
2018-06-14T22:44:35.241Z,16.50
2018-06-14T22:47:03.479Z,16.50
2018-06-14T22:49:31.749Z,16.50
2018-06-14T22:53:09.587Z,16.50
2018-06-14T22:55:37.869Z,16.40
2018-06-14T22:58:06.209Z,16.40
2018-06-14T23:01:45.140Z,16.50
2018-06-14T23:04:15.814Z,16.60
2018-06-14T23:06:44.162Z,16.60
2018-06-14T23:10:29.629Z,16.60
2018-06-14T23:12:57.953Z,16.50
2018-06-14T23:15:26.269Z,16.50
2018-06-14T23:17:54.772Z,16.50
2018-06-14T23:20:24.059Z,16.50
2018-06-14T23:22:55.395Z,16.50
2018-06-14T23:25:24.586Z,16.50
2018-06-14T23:27:52.974Z,16.50
2018-06-14T23:30:21.334Z,16.60
2018-06-14T23:32:49.935Z,16.50
2018-06-14T23:35:18.613Z,16.50
2018-06-14T23:37:46.996Z,16.50
2018-06-14T23:42:44.092Z,16.50
2018-06-14T23:45:12.470Z,16.50
2018-06-14T23:47:40.782Z,16.50
2018-06-14T23:50:09.085Z,16.40
2018-06-14T23:52:37.529Z,16.40
2018-06-14T23:55:05.813Z,16.40
2018-06-14T23:57:34.096Z,16.40
